Time;durP1;ratioP1;P1;durP2;ratioP2;P2;SDS_P1;SDS_P2;PMS_P1;PMS_P2;Temp;Humidity;BMP_temperature;BMP_pressure;BME280_temperature;BME280_humidity;BME280_pressure;Samples;Min_cycle;Max_cycle;Signal;HPM_P1;HPM_P2
2023/09/26 00:01:02;;;;;;;;;6.00;5.25;;;;;22.27;50.96;101549.09;4901138;28;46579;-44
2023/09/26 00:03:28;;;;;;;;;7.25;5.25;;;;;22.26;51.09;101542.09;4900657;28;45399;-47
2023/09/26 00:05:56;;;;;;;;;5.25;5.25;;;;;22.26;51.07;101539.44;4901152;28;45509;-45
2023/09/26 00:08:22;;;;;;;;;5.50;5.00;;;;;22.27;50.89;101538.53;4901039;28;45466;-47
2023/09/26 00:10:48;;;;;;;;;4.00;4.00;;;;;22.26;50.83;101545.59;4901086;28;45166;-43
2023/09/26 00:13:16;;;;;;;;;6.00;5.25;;;;;22.26;50.98;101542.97;4901147;28;45487;-46
2023/09/26 00:15:42;;;;;;;;;6.50;5.00;;;;;22.26;51.18;101542.97;4901171;28;45518;-45
2023/09/26 00:18:08;;;;;;;;;5.50;4.00;;;;;22.23;51.05;101536.03;4900708;29;46012;-47
2023/09/26 00:20:38;;;;;;;;;9.00;6.00;;;;;22.25;50.84;101535.97;4899750;28;45712;-40
2023/09/26 00:23:07;;;;;;;;;7.00;5.00;;;;;22.24;50.89;101528.97;4900981;28;45420;-42
2023/09/26 00:25:32;;;;;;;;;7.00;6.00;;;;;22.24;50.65;101532.47;4901323;28;45558;-42
2023/09/26 00:27:58;;;;;;;;;6.25;6.25;;;;;22.24;50.97;101531.63;4900751;28;45389;-42
2023/09/26 00:30:26;;;;;;;;;6.75;4.25;;;;;22.24;51.02;101528.97;4900772;28;45483;-50
2023/09/26 00:32:52;;;;;;;;;5.00;4.75;;;;;22.23;50.96;101527.25;4900718;28;45185;-48
2023/09/26 00:35:19;;;;;;;;;6.25;5.75;;;;;22.23;51.12;101528.09;4900884;28;45532;-44
2023/09/26 00:37:50;;;;;;;;;10.00;6.75;;;;;22.23;50.70;101533.38;4900441;28;45565;-47
2023/09/26 00:40:20;;;;;;;;;6.25;6.25;;;;;22.21;50.66;101535.25;4900514;28;45292;-50
2023/09/26 00:42:45;;;;;;;;;8.25;5.50;;;;;22.23;50.89;101538.66;4900723;28;45307;-49
2023/09/26 00:45:12;;;;;;;;;8.25;6.00;;;;;22.23;50.95;101528.09;4900743;28;45635;-47
2023/09/26 00:47:39;;;;;;;;;9.00;6.00;;;;;22.22;50.83;101534.31;4900478;28;46609;-49
2023/09/26 00:50:14;;;;;;;;;5.00;5.00;;;;;22.21;50.88;101524.69;4900796;28;45237;-51
2023/09/26 00:52:42;;;;;;;;;6.75;6.25;;;;;22.21;50.80;101522.03;4900597;28;45299;-50
2023/09/26 00:55:09;;;;;;;;;2.25;1.00;;;;;22.20;50.75;101525.66;4900787;28;45185;-50
2023/09/26 00:57:35;;;;;;;;;8.50;6.00;;;;;22.21;50.45;101523.84;4899293;29;48576;-48
2023/09/26 01:00:02;;;;;;;;;5.75;5.75;;;;;22.20;50.72;101536.22;4900426;28;45303;-50
2023/09/26 01:02:28;;;;;;;;;8.00;7.00;;;;;22.21;50.68;101539.69;4900161;28;45312;-52
2023/09/26 01:04:54;;;;;;;;;1.00;0.00;;;;;22.19;50.56;101531.84;4900605;28;45474;-49
2023/09/26 01:07:20;;;;;;;;;7.00;6.00;;;;;22.19;50.71;101526.56;4898188;29;47795;-44
2023/09/26 01:09:46;;;;;;;;;5.00;5.00;;;;;22.19;50.63;101526.56;4900146;28;45653;-49
2023/09/26 01:12:11;;;;;;;;;4.75;4.75;;;;;22.18;50.48;101524.88;4900326;28;45782;-51
2023/09/26 01:14:37;;;;;;;;;6.00;6.00;;;;;22.19;50.59;101516.00;4900535;29;45784;-42
2023/09/26 01:17:03;;;;;;;;;5.75;5.00;;;;;22.19;50.62;101521.28;4900277;28;46168;-44
2023/09/26 01:19:29;;;;;;;;;7.00;6.00;;;;;22.19;50.28;101510.75;4900117;28;45733;-48
2023/09/26 01:21:54;;;;;;;;;5.25;4.00;;;;;22.19;50.18;101509.88;4900189;29;45342;-52
2023/09/26 01:24:19;;;;;;;;;7.00;5.00;;;;;22.19;50.19;101510.75;4900386;29;45324;-52
2023/09/26 01:26:45;;;;;;;;;6.25;5.00;;;;;22.18;50.50;101509.03;4898623;28;47845;-51
2023/09/26 01:29:10;;;;;;;;;5.75;5.75;;;;;22.18;50.50;101510.78;4899437;29;57698;-50
2023/09/26 01:31:36;;;;;;;;;6.50;4.50;;;;;22.17;50.49;101515.25;4900333;28;45465;-48
2023/09/26 01:34:02;;;;;;;;;5.00;5.00;;;;;22.18;50.33;101514.31;4900261;28;45275;-45
2023/09/26 01:36:28;;;;;;;;;5.50;4.00;;;;;22.18;50.27;101511.66;4899822;28;46240;-45
2023/09/26 01:38:56;;;;;;;;;5.50;4.00;;;;;22.17;50.27;101502.03;4899818;28;45435;-43
2023/09/26 01:41:23;;;;;;;;;5.00;5.00;;;;;22.17;50.07;101496.75;4900028;28;45241;-47
2023/09/26 01:43:48;;;;;;;;;5.75;5.75;;;;;22.16;50.33;101495.03;4899998;28;45331;-44
2023/09/26 01:46:13;;;;;;;;;3.75;3.75;;;;;22.17;50.16;101485.31;4899773;28;45450;-43
2023/09/26 01:48:39;;;;;;;;;7.00;7.00;;;;;22.17;50.28;101486.19;4899971;28;45535;-39
2023/09/26 01:51:05;;;;;;;;;6.00;6.00;;;;;22.15;50.28;101482.78;4900252;28;45508;-46
2023/09/26 01:53:30;;;;;;;;;5.50;5.50;;;;;22.16;50.24;101484.47;4899862;28;45537;-41
2023/09/26 01:55:59;;;;;;;;;6.75;5.75;;;;;22.16;50.03;101484.47;4898174;29;47390;-43
2023/09/26 01:58:25;;;;;;;;;6.75;5.00;;;;;22.16;50.02;101479.19;4899636;28;45841;-42
2023/09/26 02:00:50;;;;;;;;;6.50;5.75;;;;;22.15;50.18;101493.34;4899602;28;45243;-40
2023/09/26 02:03:15;;;;;;;;;6.00;5.50;;;;;22.15;50.11;101493.34;4899334;28;46983;-45
2023/09/26 02:05:40;;;;;;;;;5.00;5.00;;;;;22.15;50.18;101503.06;4899028;28;47478;-47
2023/09/26 02:08:06;;;;;;;;;8.00;6.00;;;;;22.13;50.05;101500.47;4899108;29;61778;-42
2023/09/26 02:10:31;;;;;;;;;6.50;6.00;;;;;22.15;50.32;101503.06;4899510;28;45367;-43
2023/09/26 02:12:57;;;;;;;;;5.25;5.00;;;;;22.14;49.97;101496.06;4899590;28;45194;-50
2023/09/26 02:15:22;;;;;;;;;6.00;6.00;;;;;22.14;49.85;101504.81;4899041;28;51508;-42
2023/09/26 02:17:48;;;;;;;;;6.75;5.25;;;;;22.14;50.03;101496.91;4899304;28;45358;-43
2023/09/26 02:20:17;;;;;;;;;5.75;5.00;;;;;22.14;49.89;101494.25;4899482;28;45537;-42
2023/09/26 02:22:45;;;;;;;;;5.00;5.00;;;;;22.13;50.07;101492.56;4899666;28;45413;-46
2023/09/26 02:25:12;;;;;;;;;6.00;4.75;;;;;22.13;49.84;101484.63;4899484;28;46192;-41
2023/09/26 02:27:38;;;;;;;;;5.25;5.00;;;;;22.12;50.01;101482.09;4902441;28;45274;-48
2023/09/26 02:30:05;;;;;;;;;4.25;4.25;;;;;22.13;49.81;101483.78;4902577;28;45413;-45
2023/09/26 02:32:34;;;;;;;;;5.00;5.00;;;;;22.11;50.07;101478.56;4902605;28;45387;-43
2023/09/26 02:35:00;;;;;;;;;4.75;4.25;;;;;22.11;49.84;101486.50;4902519;28;45293;-44
2023/09/26 02:37:25;;;;;;;;;4.00;4.00;;;;;22.11;49.92;101489.13;4902416;28;45383;-40
2023/09/26 02:39:50;;;;;;;;;8.00;6.00;;;;;22.12;49.64;101493.47;4902515;28;45352;-48
2023/09/26 02:42:16;;;;;;;;;7.00;6.00;;;;;22.11;49.73;101489.13;4902360;29;46643;-50
2023/09/26 02:44:41;;;;;;;;;6.25;5.25;;;;;22.12;49.70;101490.84;4902156;29;57658;-51
2023/09/26 02:47:07;;;;;;;;;6.00;6.00;;;;;22.11;49.57;101481.22;4902239;28;45369;-47
2023/09/26 02:49:32;;;;;;;;;5.00;5.00;;;;;22.11;49.86;101475.94;4902251;29;45415;-46
2023/09/26 02:51:57;;;;;;;;;6.00;6.00;;;;;22.10;49.78;101466.34;4902269;28;45456;-51
2023/09/26 02:54:23;;;;;;;;;6.75;5.75;;;;;22.10;50.08;101468.97;4902051;28;46419;-48
2023/09/26 02:56:48;;;;;;;;;6.50;5.00;;;;;22.09;49.46;101457.53;4902111;28;45435;-48
2023/09/26 02:59:13;;;;;;;;;4.33;4.33;;;;;22.09;49.55;101462.00;4901934;28;57020;-43
2023/09/26 03:01:38;;;;;;;;;6.50;6.50;;;;;22.09;49.52;101451.44;4902587;28;45390;-43
2023/09/26 03:04:05;;;;;;;;;5.75;4.75;;;;;22.08;49.62;101455.84;4900295;29;58906;-48
2023/09/26 03:06:30;;;;;;;;;4.50;4.50;;;;;22.09;49.69;101454.06;4900542;29;45793;-42
2023/09/26 03:08:56;;;;;;;;;4.00;4.00;;;;;22.07;49.48;101453.28;4901936;28;45348;-43
2023/09/26 03:11:21;;;;;;;;;6.00;4.75;;;;;22.08;49.34;101452.34;4902116;28;45413;-44
2023/09/26 03:13:46;;;;;;;;;4.75;4.75;;;;;22.06;49.43;101454.22;4901694;28;45978;-43
2023/09/26 03:16:14;;;;;;;;;6.00;5.00;;;;;22.07;49.67;101450.66;4902042;28;45337;-48
2023/09/26 03:18:40;;;;;;;;;7.25;5.75;;;;;22.06;49.16;101449.78;4902344;28;45325;-47
2023/09/26 03:21:06;;;;;;;;;6.00;4.75;;;;;22.05;49.16;101440.16;4902069;29;45516;-44
2023/09/26 03:23:33;;;;;;;;;6.00;6.00;;;;;22.06;49.36;101448.94;4901669;28;46302;-40
2023/09/26 03:25:58;;;;;;;;;7.75;6.00;;;;;22.05;49.14;101450.72;4901786;28;45500;-38
2023/09/26 03:28:24;;;;;;;;;7.00;5.00;;;;;22.04;49.24;101451.66;4901636;28;45450;-42
2023/09/26 03:30:49;;;;;;;;;6.50;5.50;;;;;22.04;49.13;101450.81;4900427;29;45676;-39
2023/09/26 03:33:14;;;;;;;;;5.25;4.50;;;;;22.05;49.26;101444.59;4901837;28;46207;-42
2023/09/26 03:35:40;;;;;;;;;4.75;4.75;;;;;22.04;49.30;101451.66;4901133;28;54064;-46
2023/09/26 03:38:05;;;;;;;;;7.00;6.00;;;;;22.03;49.00;101441.19;4900369;28;45832;-45
2023/09/26 03:40:30;;;;;;;;;3.50;3.50;;;;;22.03;49.30;101452.59;4901790;28;45512;-51
2023/09/26 03:42:56;;;;;;;;;5.00;4.00;;;;;22.02;49.00;101444.75;4901424;29;45461;-51
2023/09/26 03:45:22;;;;;;;;;5.00;5.00;;;;;22.03;48.82;101442.03;4901355;28;45446;-48
2023/09/26 03:47:48;;;;;;;;;7.00;5.75;;;;;22.03;49.16;101451.72;4901442;28;45382;-50
2023/09/26 03:50:17;;;;;;;;;5.00;5.00;;;;;22.04;48.70;101456.06;4900603;29;45546;-50
2023/09/26 03:52:42;;;;;;;;;7.00;5.25;;;;;22.02;49.03;101452.66;4901477;28;46094;-52
2023/09/26 03:55:08;;;;;;;;;5.00;4.75;;;;;22.03;49.00;101451.72;4900971;29;50495;-49
2023/09/26 03:57:34;;;;;;;;;6.25;4.75;;;;;22.04;48.84;101448.16;4901242;28;45410;-45
2023/09/26 04:00:00;;;;;;;;;4.75;4.75;;;;;22.03;48.89;101447.31;4916218;28;45636;-47
2023/09/26 04:02:26;;;;;;;;;6.75;6.75;;;;;22.03;48.95;101443.81;4901028;28;46110;-46
2023/09/26 04:04:51;;;;;;;;;8.00;6.00;;;;;22.02;48.87;101437.69;4900977;28;45442;-44
2023/09/26 04:07:16;;;;;;;;;6.75;5.00;;;;;22.01;48.87;101430.72;4901342;28;45374;-43
2023/09/26 04:09:42;;;;;;;;;7.75;5.75;;;;;22.02;48.98;101428.91;4916018;28;45319;-46
2023/09/26 04:12:07;;;;;;;;;6.00;5.50;;;;;22.02;48.77;101423.63;4900913;28;45385;-46
2023/09/26 04:14:32;;;;;;;;;5.00;5.00;;;;;22.00;48.92;101415.81;4900966;28;45394;-46
2023/09/26 04:16:58;;;;;;;;;5.75;5.75;;;;;22.00;48.86;101418.44;4901124;28;45411;-38
2023/09/26 04:19:23;;;;;;;;;5.00;5.00;;;;;22.01;48.93;101414.88;4901159;28;45566;-51
2023/09/26 04:21:52;;;;;;;;;5.25;4.75;;;;;22.01;48.97;101411.34;4900396;28;54713;-43
2023/09/26 04:24:17;;;;;;;;;6.50;6.00;;;;;22.01;48.61;101416.63;4901179;28;45800;-47
2023/09/26 04:26:42;;;;;;;;;4.50;4.50;;;;;22.01;48.61;101411.34;4900607;28;48531;-45
2023/09/26 04:29:10;;;;;;;;;7.00;5.25;;;;;22.01;48.66;101417.50;4901135;28;45482;-44
2023/09/26 04:31:35;;;;;;;;;6.75;4.75;;;;;22.00;48.86;101409.66;4900518;28;46224;-43
2023/09/26 04:34:00;;;;;;;;;6.00;5.25;;;;;22.00;48.74;101409.66;4900421;29;47789;-47
2023/09/26 04:36:26;;;;;;;;;7.00;6.00;;;;;22.00;48.60;101420.22;4900210;29;56329;-42
2023/09/26 04:38:51;;;;;;;;;6.00;6.00;;;;;21.98;48.99;101422.09;4900898;29;45657;-43
2023/09/26 04:41:16;;;;;;;;;7.00;6.00;;;;;21.98;48.92;101422.09;4900806;28;46281;-42
2023/09/26 04:43:42;;;;;;;;;6.00;6.00;;;;;21.97;48.80;101426.50;4900602;28;45340;-45
2023/09/26 04:46:11;;;;;;;;;6.25;5.50;;;;;21.97;48.77;101412.47;4900580;29;45355;-46
2023/09/26 04:48:37;;;;;;;;;7.75;7.25;;;;;21.97;48.60;101415.13;4900448;28;45505;-43
2023/09/26 04:51:12;;;;;;;;;6.25;6.25;;;;;21.97;48.73;101415.13;4900171;28;45982;-48
2023/09/26 04:53:38;;;;;;;;;5.25;4.00;;;;;21.96;48.88;101414.25;4900522;28;45245;-47
2023/09/26 04:56:04;;;;;;;;;7.25;5.25;;;;;21.96;48.74;101413.41;4900596;28;45228;-46
2023/09/26 04:58:30;;;;;;;;;6.00;6.00;;;;;21.95;49.04;101411.69;4900518;28;45586;-45
2023/09/26 05:00:56;;;;;;;;;7.00;6.00;;;;;21.94;49.31;101405.53;4900303;28;47438;-40
2023/09/26 05:03:22;;;;;;;;;11.00;6.00;;;;;21.95;49.30;101404.63;4900217;28;45352;-45
2023/09/26 05:05:47;;;;;;;;;6.00;5.75;;;;;21.95;49.45;101401.97;4899967;28;45667;-50
2023/09/26 05:08:12;;;;;;;;;7.00;5.33;;;;;21.95;49.43;101401.97;4897810;29;57917;-46
2023/09/26 05:10:38;;;;;;;;;5.00;5.00;;;;;21.96;49.28;101392.28;4899451;29;48162;-46
2023/09/26 05:13:05;;;;;;;;;7.50;6.00;;;;;21.95;49.09;101393.22;4899932;29;45268;-43
2023/09/26 05:15:33;;;;;;;;;4.25;4.25;;;;;21.93;49.11;101394.16;4900000;28;45802;-45
2023/09/26 05:17:58;;;;;;;;;6.50;5.25;;;;;21.93;49.31;101396.78;4900215;28;45269;-45
2023/09/26 05:20:24;;;;;;;;;6.25;6.25;;;;;21.93;49.25;101390.69;4899219;28;62540;-44
2023/09/26 05:22:49;;;;;;;;;7.25;5.00;;;;;21.91;49.05;101396.00;4900226;28;45402;-48
2023/09/26 05:25:15;;;;;;;;;5.25;4.50;;;;;21.92;49.28;101392.44;4899960;28;45348;-45
2023/09/26 05:27:43;;;;;;;;;6.75;4.75;;;;;21.93;48.96;101402.06;4900143;28;45274;-47
2023/09/26 05:30:09;;;;;;;;;5.25;4.75;;;;;21.92;49.09;101400.34;4898425;28;47989;-44
2023/09/26 05:32:35;;;;;;;;;4.50;3.00;;;;;21.92;48.60;101395.09;4899621;28;45843;-43
2023/09/26 05:35:03;;;;;;;;;6.00;5.00;;;;;21.91;48.92;101396.00;4899806;28;45217;-42
2023/09/26 05:37:29;;;;;;;;;4.25;4.25;;;;;21.90;48.99;101394.31;4898688;29;45472;-48
2023/09/26 05:39:54;;;;;;;;;6.00;5.50;;;;;21.91;48.81;101397.81;4899562;28;46272;-49
2023/09/26 05:42:19;;;;;;;;;7.50;4.75;;;;;21.90;48.74;101394.31;4899390;28;56482;-53
2023/09/26 05:44:44;;;;;;;;;5.25;4.25;;;;;21.90;48.80;101389.03;4899751;28;45445;-45
2023/09/26 05:47:10;;;;;;;;;5.25;4.00;;;;;21.89;49.05;101386.47;4899679;28;45402;-45
2023/09/26 05:49:35;;;;;;;;;5.00;4.50;;;;;21.87;48.28;101383.06;4899159;28;55066;-42
2023/09/26 05:52:02;;;;;;;;;7.00;6.00;;;;;21.86;48.59;101387.50;4898951;29;54465;-42
2023/09/26 05:54:30;;;;;;;;;5.00;5.00;;;;;21.86;48.54;101392.78;4898421;29;45382;-46
2023/09/26 05:56:55;;;;;;;;;7.00;4.75;;;;;21.86;48.67;101400.69;4899919;28;45513;-44
2023/09/26 05:59:20;;;;;;;;;7.00;4.75;;;;;21.86;48.60;101399.81;4897710;29;67671;-41
2023/09/26 06:01:46;;;;;;;;;5.00;5.00;;;;;21.85;48.15;101390.19;4901102;28;45376;-47
2023/09/26 06:04:11;;;;;;;;;4.00;4.00;;;;;21.84;48.09;101384.09;4902328;28;56808;-42
2023/09/26 06:06:36;;;;;;;;;5.25;5.25;;;;;21.84;48.23;101384.09;4902623;28;47393;-47
2023/09/26 06:09:02;;;;;;;;;6.00;3.75;;;;;21.84;48.25;101389.38;4902575;28;46022;-45
2023/09/26 06:11:27;;;;;;;;;6.25;5.25;;;;;21.83;48.08;101390.28;4902582;28;45340;-42
2023/09/26 06:13:53;;;;;;;;;5.00;4.75;;;;;21.83;48.10;101378.91;4902435;29;55968;-47
2023/09/26 06:16:21;;;;;;;;;4.75;4.75;;;;;21.82;48.17;101382.47;4902952;28;45552;-48
2023/09/26 06:18:47;;;;;;;;;5.25;4.00;;;;;21.81;47.78;101386.88;4902154;28;45331;-44
2023/09/26 06:21:14;;;;;;;;;4.75;4.75;;;;;21.81;47.71;101383.41;4902419;28;45370;-39
2023/09/26 06:23:42;;;;;;;;;5.00;4.00;;;;;21.78;47.78;101377.34;4917375;28;45360;-44
2023/09/26 06:26:08;;;;;;;;;7.00;3.75;;;;;21.78;47.94;101384.38;4902732;29;45347;-46
2023/09/26 06:28:34;;;;;;;;;4.25;4.25;;;;;21.78;47.76;101392.31;4917075;28;46051;-47
2023/09/26 06:31:07;;;;;;;;;4.00;4.00;;;;;21.78;47.80;101394.94;4902239;29;45386;-46
2023/09/26 06:33:33;;;;;;;;;4.75;4.75;;;;;21.77;47.85;101382.72;4902538;28;45328;-52
2023/09/26 06:35:58;;;;;;;;;5.25;3.00;;;;;21.78;47.71;101381.75;4902573;28;45597;-50
2023/09/26 06:38:23;;;;;;;;;5.00;5.00;;;;;21.77;48.00;101377.44;4901230;29;46315;-50
2023/09/26 06:40:59;;;;;;;;;4.25;4.25;;;;;21.77;47.60;101382.72;4902231;28;45384;-51
2023/09/26 06:43:25;;;;;;;;;3.00;2.00;;;;;21.77;47.46;101390.63;4902714;28;45412;-50
2023/09/26 06:45:50;;;;;;;;;5.00;4.00;;;;;21.76;47.64;101389.75;4902123;29;45552;-52
2023/09/26 06:48:15;;;;;;;;;4.00;4.00;;;;;21.76;47.53;101391.56;4902099;28;46103;-51
2023/09/26 06:50:44;;;;;;;;;4.25;3.00;;;;;21.76;47.24;101389.75;4916532;28;46015;-51
2023/09/26 06:53:09;;;;;;;;;4.00;4.00;;;;;21.75;47.49;101395.13;4901651;28;55018;-53
2023/09/26 06:55:39;;;;;;;;;6.00;6.00;;;;;21.75;47.50;101395.13;4902279;28;45468;-48
2023/09/26 06:58:07;;;;;;;;;2.00;2.00;;;;;21.75;47.35;101392.47;4901860;28;46464;-53
2023/09/26 07:00:32;;;;;;;;;5.25;4.00;;;;;21.74;47.62;101388.97;4901980;28;45371;-50
2023/09/26 07:02:58;;;;;;;;;5.25;5.25;;;;;21.75;47.33;101384.56;4901994;28;48359;-44
2023/09/26 07:05:26;;;;;;;;;4.75;4.50;;;;;21.76;47.42;101395.03;4901979;28;45312;-49
2023/09/26 07:07:51;;;;;;;;;4.00;4.00;;;;;21.75;47.52;101398.59;4901668;28;46206;-51
2023/09/26 07:10:17;;;;;;;;;6.00;4.00;;;;;21.77;47.38;101406.47;4901634;28;45245;-48
2023/09/26 07:12:44;;;;;;;;;7.00;7.00;;;;;21.80;47.32;101400.16;4901301;28;45221;-49
2023/09/26 07:15:11;;;;;;;;;5.25;4.00;;;;;21.80;47.40;101403.63;4901816;28;45636;-49
2023/09/26 07:17:37;;;;;;;;;5.50;5.00;;;;;21.80;47.39;101398.34;4901674;28;46939;-51
2023/09/26 07:20:02;;;;;;;;;5.00;5.00;;;;;21.81;47.31;101401.88;4901080;29;62237;-55
2023/09/26 07:22:28;;;;;;;;;5.00;5.00;;;;;21.81;47.38;101401.88;4901917;28;45323;-46
2023/09/26 07:24:53;;;;;;;;;5.25;5.25;;;;;21.80;47.20;101392.25;4901874;28;45398;-50
2023/09/26 07:27:19;;;;;;;;;6.00;5.00;;;;;21.82;47.24;101396.50;4915951;28;47066;-52
2023/09/26 07:29:46;;;;;;;;;6.25;6.00;;;;;21.85;46.96;101412.19;4901602;28;45241;-51
2023/09/26 07:32:11;;;;;;;;;4.00;4.00;;;;;21.83;47.39;101414.03;4900283;29;45330;-48
2023/09/26 07:34:36;;;;;;;;;5.25;5.00;;;;;21.84;47.41;101425.44;4901352;28;45655;-44
2023/09/26 07:37:02;;;;;;;;;6.25;5.25;;;;;21.85;47.10;101420.09;4901034;28;51624;-45
2023/09/26 07:39:27;;;;;;;;;5.25;5.25;;;;;21.86;47.17;101418.28;4901689;28;45248;-44
2023/09/26 07:41:52;;;;;;;;;5.25;5.00;;;;;21.87;47.17;101417.38;4901143;29;45364;-46
2023/09/26 07:44:18;;;;;;;;;6.00;6.00;;;;;21.85;47.24;101412.19;4900768;29;60113;-41
2023/09/26 07:46:43;;;;;;;;;4.00;4.00;;;;;21.85;47.48;101417.47;4900912;28;46256;-45
2023/09/26 07:49:08;;;;;;;;;6.75;5.00;;;;;21.86;47.00;101419.16;4910932;28;45431;-40
2023/09/26 07:51:34;;;;;;;;;9.50;5.00;;;;;21.86;47.10;101423.56;4906548;28;45432;-47
2023/09/26 07:53:59;;;;;;;;;5.00;5.00;;;;;21.86;47.23;101418.28;4910033;28;56539;-49
2023/09/26 07:56:24;;;;;;;;;3.50;3.50;;;;;21.87;47.04;101418.25;4909723;28;59140;-43
2023/09/26 07:58:50;;;;;;;;;3.00;3.00;;;;;21.87;47.22;101420.00;4923306;28;45478;-49
2023/09/26 08:01:15;;;;;;;;;5.50;5.50;;;;;21.87;47.19;101415.59;4914291;28;45327;-49
2023/09/26 08:03:43;;;;;;;;;4.00;3.00;;;;;21.88;47.08;101419.91;4920418;28;45541;-50
2023/09/26 08:06:09;;;;;;;;;3.50;3.50;;;;;21.88;47.07;101424.34;4919625;28;46995;-42
2023/09/26 08:08:35;;;;;;;;;5.00;4.25;;;;;21.88;46.96;101429.63;4919863;28;45651;-52
2023/09/26 08:11:06;;;;;;;;;4.00;4.00;;;;;21.88;46.99;101425.19;4918901;28;45419;-49
2023/09/26 08:13:31;;;;;;;;;6.00;4.50;;;;;21.87;46.87;101423.50;4920410;28;45352;-48
2023/09/26 08:15:57;;;;;;;;;8.75;5.00;;;;;21.87;46.93;101418.25;4920024;28;45689;-51
2023/09/26 08:18:23;;;;;;;;;4.50;4.50;;;;;21.89;46.49;101424.25;4919863;28;45395;-45
2023/09/26 08:20:49;;;;;;;;;6.50;6.00;;;;;21.87;46.75;101430.56;4919983;28;45316;-53
2023/09/26 08:23:16;;;;;;;;;5.00;5.00;;;;;21.85;46.89;101433.28;4919947;28;45261;-50
2023/09/26 08:25:41;;;;;;;;;6.00;5.25;;;;;21.81;46.49;101434.38;4919252;28;46568;-46
2023/09/26 08:28:07;;;;;;;;;5.00;4.00;;;;;21.79;46.59;101436.22;4919836;28;45321;-50
2023/09/26 08:30:33;;;;;;;;;4.00;4.00;;;;;21.75;46.37;101430.25;4920261;28;45255;-49
2023/09/26 08:32:58;;;;;;;;;6.50;6.50;;;;;21.74;46.54;101435.63;4920235;28;45424;-52
2023/09/26 18:44:36;;;;;;;;;8.25;7.00;;;;;22.74;46.42;101352.00;5421498;23;45902;-44
2023/09/26 18:47:02;;;;;;;;;9.75;8.00;;;;;22.75;46.58;101359.00;4921485;28;45437;-47
2023/09/26 18:49:27;;;;;;;;;6.00;6.00;;;;;22.74;46.71;101352.00;4921722;28;45394;-45
2023/09/26 18:51:53;;;;;;;;;9.75;7.00;;;;;22.73;46.39;101351.16;4920789;28;63185;-42
2023/09/26 18:54:18;;;;;;;;;9.25;8.00;;;;;22.73;46.30;101361.72;4919918;28;45367;-48
2023/09/26 18:56:44;;;;;;;;;11.25;8.50;;;;;22.73;46.69;101369.66;4921109;28;45243;-50
2023/09/26 18:59:12;;;;;;;;;8.75;8.75;;;;;22.73;46.50;101368.78;4921310;28;45285;-51
2023/09/26 19:01:37;;;;;;;;;9.50;9.50;;;;;22.74;46.45;101363.44;4920696;28;55234;-49
2023/09/26 19:04:03;;;;;;;;;10.50;8.75;;;;;22.78;46.64;101361.47;4921119;28;45375;-49
2023/09/26 19:06:30;;;;;;;;;7.50;7.50;;;;;22.80;46.54;101359.59;4921211;28;45391;-49
2023/09/26 19:08:55;;;;;;;;;9.25;7.25;;;;;22.82;46.57;101365.66;4921286;28;45612;-47
2023/09/26 19:11:21;;;;;;;;;10.00;9.00;;;;;22.82;46.73;101385.00;4920952;28;46054;-50
2023/09/26 19:13:46;;;;;;;;;9.25;8.50;;;;;22.84;46.63;101385.75;4935794;28;45441;-43
2023/09/26 19:16:11;;;;;;;;;10.75;9.00;;;;;22.87;46.61;101373.31;4921043;28;45233;-42
2023/09/26 19:18:37;;;;;;;;;8.75;8.00;;;;;22.90;46.47;101367.84;4921362;28;45509;-40
2023/09/26 19:21:02;;;;;;;;;9.25;9.25;;;;;22.91;46.37;101353.69;4920799;28;46665;-43
2023/09/26 19:23:27;;;;;;;;;10.25;9.75;;;;;22.93;46.40;101354.44;4920009;28;45323;-44
2023/09/26 19:25:53;;;;;;;;;9.75;8.00;;;;;22.95;46.69;101355.22;4920692;28;47852;-42
2023/09/26 19:28:18;;;;;;;;;11.75;8.00;;;;;22.96;46.51;101351.63;4935736;28;45442;-42
2023/09/26 19:30:45;;;;;;;;;10.00;8.50;;;;;22.97;46.24;101356.81;4919683;28;46128;-49
2023/09/26 19:33:11;;;;;;;;;9.75;8.50;;;;;23.00;46.57;101351.38;4920716;28;45771;-45
2023/09/26 19:35:37;;;;;;;;;10.75;9.00;;;;;23.02;46.48;101351.28;4920667;28;45442;-46
2023/09/26 19:38:03;;;;;;;;;10.50;9.75;;;;;23.03;46.38;101360.06;4920884;28;45419;-53
2023/09/26 19:40:29;;;;;;;;;12.25;9.75;;;;;23.06;45.97;101363.38;4920823;28;45526;-46
2023/09/26 19:42:58;;;;;;;;;11.00;7.50;;;;;23.05;46.68;101364.31;4920983;28;45407;-47
2023/09/26 19:45:26;;;;;;;;;9.25;9.25;;;;;23.08;46.30;101377.38;4920554;28;45237;-53
2023/09/26 19:47:53;;;;;;;;;8.00;7.25;;;;;23.12;46.15;101384.16;4917423;28;45554;-42
2023/09/26 19:50:18;;;;;;;;;10.00;10.00;;;;;23.13;46.43;101385.03;4914614;28;45670;-48
2023/09/26 19:52:43;;;;;;;;;7.25;6.00;;;;;23.14;46.69;101382.28;4914529;28;54125;-40
2023/09/26 19:55:10;;;;;;;;;8.00;8.00;;;;;23.15;46.50;101389.28;4914505;28;45658;-42
2023/09/26 19:57:36;;;;;;;;;9.25;9.25;;;;;23.14;46.41;101376.16;4919042;28;45345;-45
2023/09/26 20:00:06;;;;;;;;;10.00;7.75;;;;;23.11;46.56;101379.81;4920817;28;45575;-40
2023/09/26 20:02:31;;;;;;;;;10.00;8.00;;;;;23.08;46.07;101366.78;4928805;28;45629;-46
2023/09/26 20:04:57;;;;;;;;;8.25;7.25;;;;;23.08;46.26;101371.22;4928910;28;45556;-43
2023/09/26 20:07:22;;;;;;;;;8.25;7.00;;;;;23.06;46.38;101367.81;4930007;28;49152;-43
2023/09/26 20:09:47;;;;;;;;;10.67;8.33;;;;;23.03;46.39;101373.28;4927751;28;68026;-45
2023/09/26 20:12:13;;;;;;;;;9.00;7.00;;;;;23.01;46.09;101371.59;4928793;28;45528;-52
2023/09/26 20:14:39;;;;;;;;;8.75;7.25;;;;;23.00;46.64;101379.59;4928274;28;45482;-51
2023/09/26 20:17:04;;;;;;;;;10.75;8.00;;;;;22.98;46.48;101373.56;4928271;28;45510;-48
2023/09/26 20:19:29;;;;;;;;;7.33;7.33;;;;;22.97;46.48;101366.56;4928151;28;64828;-47
2023/09/26 20:21:55;;;;;;;;;10.25;9.50;;;;;22.94;46.66;101369.38;4929193;28;45489;-46
2023/09/26 20:24:20;;;;;;;;;11.75;8.25;;;;;22.94;46.48;101377.31;4927671;28;53130;-43
2023/09/26 20:26:45;;;;;;;;;9.00;7.50;;;;;22.93;46.54;101362.38;4929952;28;45506;-45
2023/09/26 20:29:11;;;;;;;;;10.25;8.50;;;;;22.91;46.55;101370.41;4928539;28;46342;-47
2023/09/26 20:31:36;;;;;;;;;10.33;8.00;;;;;22.90;46.93;101376.63;4927555;28;62983;-44
2023/09/26 20:34:02;;;;;;;;;10.00;10.00;;;;;22.90;46.63;101379.28;4930191;28;45225;-44
2023/09/26 20:36:27;;;;;;;;;8.00;8.00;;;;;22.87;46.65;101371.50;4928143;28;45171;-45
2023/09/26 20:38:52;;;;;;;;;9.00;9.00;;;;;22.87;47.03;101381.25;4928676;28;45581;-41
2023/09/26 20:41:17;;;;;;;;;8.00;8.00;;;;;22.87;46.78;101370.66;4928642;28;61243;-43
2023/09/26 20:43:43;;;;;;;;;6.75;6.75;;;;;22.84;46.31;101363.75;4927196;28;49197;-46
2023/09/26 20:46:10;;;;;;;;;11.75;8.00;;;;;22.83;46.39;101362.03;4929528;28;45270;-46
2023/09/26 20:48:36;;;;;;;;;14.00;9.00;;;;;22.83;46.78;101373.47;4928666;28;46137;-43
2023/09/26 20:51:05;;;;;;;;;10.00;8.00;;;;;22.82;46.54;101371.78;4927756;28;45841;-46
2023/09/26 20:53:31;;;;;;;;;7.75;7.75;;;;;22.81;46.93;101371.88;4928317;28;45377;-46
2023/09/26 20:55:56;;;;;;;;;7.75;7.00;;;;;22.79;46.62;101371.09;4926773;28;45585;-49
2023/09/26 20:58:21;;;;;;;;;10.75;8.00;;;;;22.79;46.89;101385.16;4918758;28;66174;-43
2023/09/26 21:00:47;;;;;;;;;8.67;8.00;;;;;22.78;46.59;101385.25;4918843;28;60049;-44
2023/09/26 21:03:12;;;;;;;;;9.75;8.75;;;;;22.77;46.34;101400.25;4919587;28;45395;-45
2023/09/26 21:05:39;;;;;;;;;9.25;9.25;;;;;22.78;46.64;101398.47;4919682;28;45146;-49
2023/09/26 21:08:05;;;;;;;;;10.50;9.00;;;;;22.77;47.23;101391.47;4919558;28;46670;-45
2023/09/26 21:10:30;;;;;;;;;9.50;7.00;;;;;22.76;46.87;101398.56;4919473;28;45869;-44
2023/09/26 21:12:55;;;;;;;;;12.25;10.25;;;;;22.75;46.71;101407.41;4919361;28;45283;-41
2023/09/26 21:15:25;;;;;;;;;9.25;8.25;;;;;22.75;47.04;101411.84;4919488;28;45584;-40
2023/09/26 21:17:50;;;;;;;;;8.25;8.25;;;;;22.74;47.02;101421.56;4919219;28;46279;-44
2023/09/26 21:20:16;;;;;;;;;8.00;7.50;;;;;22.73;47.01;101417.22;4919200;28;45220;-45
2023/09/26 21:22:42;;;;;;;;;8.25;7.50;;;;;22.73;46.97;101424.28;4919281;28;45401;-45
2023/09/26 21:25:08;;;;;;;;;10.00;8.50;;;;;22.73;47.19;101430.44;4919387;28;45216;-47
2023/09/26 21:27:33;;;;;;;;;2.50;2.50;;;;;22.73;46.56;101429.56;4919235;28;46413;-51